ADDS METAR Data INFO
IDs: Format: Raw Decoded Include TAF

Data at: 1851 UTC 16 Dec 2017

KHAI 161835Z AUTO 19006KT 10SM CLR 04/M03 A2992 RMK AO2 T00371030
KHAI 161815Z AUTO 21005KT 10SM CLR 04/M03 A2993 RMK AO2 T00411032
KHAI 161755Z AUTO 22005KT 10SM CLR 04/M03 A2993 RMK AO2 T00431033 10043 20010
KHAI 161735Z AUTO 21006KT 10SM CLR 04/M03 A2993 RMK AO2 T00381031
KHAI 161715Z AUTO 21006KT 10SM CLR 04/M03 A2993 RMK AO2 T00381031
KHAI 161655Z AUTO 22006KT 10SM CLR 04/M03 A2993 RMK AO2 T00361033
KHAI 161635Z AUTO 23007KT 10SM CLR 03/M03 A2994 RMK AO2 T00321033
KHAI 161615Z AUTO 24006KT 10SM CLR 03/M03 A2994 RMK AO2 T00321032
KHAI 161555Z AUTO 24006KT 10SM CLR 03/M03 A2994 RMK AO2 T00281032
KHAI 161535Z AUTO 23004KT 10SM CLR 03/M03 A2993 RMK AO2 T00271032
KHAI 161515Z AUTO 23005KT 10SM SCT090 03/M03 A2992 RMK AO2 T00251032
KHAI 161455Z AUTO 23005KT 10SM BKN090 02/M03 A2992 RMK AO2 T00221030
KHAI 161435Z AUTO 22005KT 10SM OVC090 02/M03 A2991 RMK AO2 T00171031
KHAI 161415Z AUTO 22007KT 10SM BKN075 OVC090 01/M03 A2990 RMK AO2 T00141030
KHAI 161355Z AUTO 22007KT 10SM OVC080 02/M03 A2990 RMK AO2 T00151032
KHAI 161335Z AUTO 22008KT 10SM OVC090 01/M03 A2989 RMK AO2 T00131033
KHAI 161315Z AUTO 22007KT 10SM BKN100 BKN120 01/M04 A2989 RMK AO2 T00131036
KHAI 161255Z AUTO 22008KT 10SM SCT085 SCT090 BKN110 01/M04 A2990 RMK AO2 T00101037
KHAI 161235Z AUTO 22009KT 10SM OVC080 01/M04 A2990 RMK AO2 T00131037
KHAI 161215Z AUTO 22010G16KT 10SM SCT090 BKN110 01/M04 A2989 RMK AO2 T00131038
KHAI 161155Z AUTO 21010G14KT 10SM SCT120 01/M04 A2988 RMK AO2 T00111040 10018 21005
KHAI 161135Z AUTO 22009KT 10SM SCT090 BKN120 01/M04 A2987 RMK AO2 T00121040
KHAI 161115Z AUTO 22008KT 10SM BKN090 01/M04 A2987 RMK AO2 T00101043
KHAI 161055Z AUTO 21008KT 10SM SCT090 01/M04 A2987 RMK AO2 T00081045
KHAI 161035Z AUTO 20007KT 10SM OVC090 01/M04 A2986 RMK AO2 T00071043
KHAI 161015Z AUTO 19006KT 10SM OVC100 01/M04 A2987 RMK AO2 T00081045
KHAI 160955Z AUTO 22006KT 10SM BKN070 OVC110 02/M05 A2987 RMK AO2 T00161046
KHAI 160935Z AUTO 23005KT 10SM SCT037 SCT043 OVC075 02/M05 A2989 RMK AO2 T00181049
KHAI 160915Z AUTO 22005KT 10SM SCT055 OVC075 01/M05 A2988 RMK AO2 T00071046
KHAI 160855Z AUTO 21007KT 10SM SCT046 BKN055 OVC075 00/M05 A2988 RMK AO2 T00011047
KHAI 160835Z AUTO 21006KT 10SM OVC044 00/M05 A2989 RMK AO2 T00001046
KHAI 160815Z AUTO 21006KT 10SM OVC042 00/M04 A2990 RMK AO2 T00001045
KHAI 160755Z AUTO 22005KT 10SM OVC044 00/M04 A2990 RMK AO2 T00001045
KHAI 160735Z AUTO 22006KT 10SM SCT043 OVC049 00/M05 A2989 RMK AO2 T00001046
KHAI 160715Z AUTO 22006KT 10SM BKN037 OVC050 00/M05 A2989 RMK AO2 T00001046
KHAI 160655Z AUTO 21008KT 10SM BKN039 OVC050 00/M04 A2989 RMK AO2 T10011045
KHAI 160635Z AUTO 21005KT 10SM OVC050 00/M04 A2989 RMK AO2 T10051041
KHAI 160615Z AUTO 21005KT 10SM OVC046 00/M04 A2989 RMK AO2 T10051040
KHAI 160555Z AUTO 23005KT 10SM OVC046 00/M04 A2989 RMK AO2 T10021041 11001 21015 410011096
KHAI 160535Z AUTO 24005KT 10SM BKN044 OVC050 00/M04 A2990 RMK AO2 T10031039
KHAI 160515Z AUTO 23006KT 10SM -SN SCT032 BKN040 OVC045 00/M04 A2990 RMK AO2 T10051038
KHAI 160455Z AUTO 23006KT 10SM -SN SCT035 BKN040 OVC055 M01/M04 A2990 RMK AO2 T10071036
KHAI 160435Z AUTO 23005KT 5SM -SN SCT025 BKN060 OVC070 M01/M03 A2991 RMK AO2 T10101035
KHAI 160415Z AUTO 23008KT 5SM -SN SCT020 OVC025 M01/M04 A2991 RMK AO2 T10081037
KHAI 160355Z AUTO 24007KT 5SM -SN SCT017 BKN022 OVC030 M01/M04 A2992 RMK AO2 T10061042
KHAI 160335Z AUTO 23011KT 7SM -SN SCT024 SCT030 OVC060 00/M05 A2991 RMK AO2 T10031049
KHAI 160315Z AUTO 23007G14KT 7SM -SN SCT027 BKN036 OVC060 00/M05 A2992 RMK AO2 T10031050
KHAI 160255Z AUTO 24007G15KT 7SM -SN OVC036 00/M05 A2991 RMK AO2 T10031050
KHAI 160235Z AUTO 24010KT 7SM -SN OVC032 00/M05 A2991 RMK AO2 T10021052
KHAI 160215Z AUTO 23010KT 10SM OVC030 00/M05 A2991 RMK AO2 T10011055
KHAI 160155Z AUTO 24007KT 10SM OVC028 00/M05 A2991 RMK AO2 T10021055
KHAI 160135Z AUTO 24008KT 10SM BKN028 OVC037 00/M05 A2991 RMK AO2 T10041055
KHAI 160115Z AUTO 24006G15KT 10SM SCT026 BKN037 OVC043 M01/M06 A2990 RMK AO2 T10061057
KHAI 160055Z AUTO 23009KT 10SM BKN026 OVC043 M01/M06 A2990 RMK AO2 T10091060
KHAI 160035Z AUTO 23007KT 10SM BKN028 OVC035 M01/M05 A2990 RMK AO2 T10101055
KHAI 160015Z AUTO 24005KT 10SM BKN032 OVC045 M01/M05 A2990 RMK AO2 T10121055
KHAI 152355Z AUTO 23006KT 10SM BKN025 BKN033 OVC043 M01/M06 A2989 RMK AO2 T10151063 11015 21027
KHAI 152335Z AUTO 23005KT 10SM BKN025 OVC034 M02/M07 A2989 RMK AO2 T10171068
KHAI 152315Z AUTO 22004KT 10SM SCT029 BKN035 OVC047 M02/M07 A2989 RMK AO2 T10171071
KHAI 152255Z AUTO 24003KT 10SM BKN029 OVC037 M02/M07 A2989 RMK AO2 T10161073
KHAI 152235Z AUTO 26004KT 10SM -SN OVC031 M02/M07 A2989 RMK AO2 T10161075
KHAI 152215Z AUTO 26004KT 10SM BKN031 BKN044 OVC055 M01/M08 A2988 RMK AO2 T10151079
KHAI 152155Z AUTO 27006KT 10SM SCT032 BKN045 OVC055 M02/M08 A2988 RMK AO2 T10171078
KHAI 152135Z AUTO 28010KT 10SM SCT033 OVC039 M02/M08 A2987 RMK AO2 T10171081
KHAI 152115Z AUTO 29015G21KT 10SM SCT035 BKN041 OVC047 M02/M08 A2987 RMK AO2 T10201082
KHAI 152055Z AUTO 28012G18KT 10SM OVC041 M02/M08 A2987 RMK AO2 T10171084
KHAI 152035Z AUTO 28013G16KT 10SM BKN041 M02/M09 A2987 RMK AO2 T10191086
KHAI 152015Z AUTO 28015G19KT 10SM SCT036 OVC043 M02/M08 A2986 RMK AO2 T10201084
KHAI 151955Z AUTO 28015G20KT 10SM BKN034 OVC043 M02/M08 A2986 RMK AO2 T10221082
KHAI 151935Z AUTO 28013G18KT 10SM OVC034 M02/M08 A2986 RMK AO2 T10211082
KHAI 151915Z AUTO 28008G14KT 10SM SCT030 OVC039 M02/M08 A2986 RMK AO2 T10231078
KHAI 151855Z AUTO 26009G15KT 10SM -SN SCT028 SCT032 OVC039 M03/M08 A2986 RMK AO2 T10261076
KHAI 151835Z AUTO 27011G16KT 10SM -SN SCT028 OVC038 M02/M08 A2986 RMK AO2 T10251077
KHAI 151815Z AUTO 27008KT 10SM -SN SCT026 SCT030 OVC040 M02/M07 A2986 RMK AO2 T10251072
KHAI 151755Z AUTO 28010KT 10SM -SN SCT026 BKN031 OVC038 M03/M07 A2986 RMK AO2 T10271066 11027 21063
KHAI 151735Z AUTO 27013G18KT 7SM -SN SCT020 BKN030 OVC046 M03/M06 A2986 RMK AO2 T10271065
KHAI 151716Z AUTO 27010G15KT 10SM SCT015 BKN040 OVC048 M03/M06 A2986 RMK AO2 T10281063
KHAI 151655Z AUTO 25009G14KT 3SM -SN SCT015 BKN032 OVC048 M03/M06 A2986 RMK AO2 T10331057
KHAI 151635Z AUTO 24008G15KT 1 3/4SM -SN BKN015 BKN027 OVC035 M04/M06 A2986 RMK AO2 T10371062
KHAI 151615Z AUTO 24007KT 2 1/2SM -SN OVC017 M04/M06 A2987 RMK AO2 T10381065
KHAI 151555Z AUTO 24007KT 3SM -SN BKN019 BKN025 OVC031 M04/M07 A2987 RMK AO2 T10401067
KHAI 151535Z AUTO 23007KT 4SM -SN SCT015 BKN030 OVC037 M04/M07 A2987 RMK AO2 T10451070
KHAI 151515Z AUTO 22007KT 4SM -SN OVC020 M05/M07 A2987 RMK AO2 T10491073
KHAI 151455Z AUTO 23007KT 4SM -SN OVC022 M05/M07 A2987 RMK AO2 T10511075
KHAI 151435Z AUTO 22009KT 2SM -SN SCT009 OVC024 M05/M08 A2987 RMK AO2 T10531077
KHAI 151415Z AUTO 23010KT 1SM -SN OVC009 M05/M08 A2987 RMK AO2 T10531083
KHAI 151355Z AUTO 22010G15KT 3SM -SN SCT016 SCT022 OVC028 M05/M09 A2988 RMK AO2 T10511093
KHAI 151335Z AUTO 22010KT 10SM OVC024 M05/M09 A2988 RMK AO2 T10521095
KHAI 151315Z AUTO 22009KT 10SM OVC026 M05/M09 A2988 RMK AO2 T10551095
KHAI 151255Z AUTO 21009KT 10SM OVC026 M06/M10 A2989 RMK AO2 T10571099
KHAI 151235Z AUTO 22007KT 10SM OVC024 M06/M10 A2989 RMK AO2 T10601101
KHAI 151215Z AUTO 22006KT 10SM BKN024 OVC029 M06/M10 A2990 RMK AO2 T10621101
KHAI 151155Z AUTO 21006KT 10SM OVC026 M06/M10 A2990 RMK AO2 T10631104 11063 21096
KHAI 151136Z AUTO 21007KT 10SM BKN028 OVC090 M06/M10 A2990 RMK AO2 T10651104
KHAI 151115Z AUTO 22007KT 10SM OVC090 M07/M10 A2991 RMK AO2 T10671105
KHAI 151055Z AUTO 21006KT 10SM OVC090 M07/M10 A2991 RMK AO2 T10691105
KHAI 151035Z AUTO 23004KT 10SM OVC100 M07/M10 A2992 RMK AO2 T10701105
KHAI 151015Z AUTO 22005KT 10SM OVC100 M07/M10 A2993 RMK AO2 T10751105
KHAI 150955Z AUTO 22004KT 10SM OVC100 M08/M10 A2993 RMK AO2 T10771105
KHAI 150935Z AUTO 21006KT 10SM OVC100 M08/M10 A2994 RMK AO2 T10781105
KHAI 150915Z AUTO 21005KT 10SM OVC100 M08/M10 A2995 RMK AO2 T10801105
KHAI 150855Z AUTO 21006KT 10SM OVC100 M08/M10 A2996 RMK AO2 T10811105
KHAI 150835Z AUTO 21005KT 10SM OVC100 M08/M11 A2997 RMK AO2 T10821106
KHAI 150815Z AUTO 20005KT 10SM OVC100 M08/M11 A2997 RMK AO2 T10851108
KHAI 150755Z AUTO 20005KT 10SM SCT031 OVC100 M08/M11 A2997 RMK AO2 T10851108
KHAI 150735Z AUTO 20005KT 10SM SCT031 OVC100 M09/M11 A2997 RMK AO2 T10861110
KHAI 150715Z AUTO 21004KT 10SM OVC100 M09/M11 A2998 RMK AO2 T10901112
KHAI 150655Z AUTO 21003KT 10SM OVC100 M09/M11 A2998 RMK AO2 T10901112